sensor_id;sensor_type;location;lat;lon;timestamp;temperature;humidity
9167;DHT22;4618;48.818;9.088;2023-04-24T00:00:22;11.20;1.00
9167;DHT22;4618;48.818;9.088;2023-04-24T00:02:47;11.10;21.00
9167;DHT22;4618;48.818;9.088;2023-04-24T00:05:14;11.10;1.00
9167;DHT22;4618;48.818;9.088;2023-04-24T00:07:44;11.20;1.00
9167;DHT22;4618;48.818;9.088;2023-04-24T00:10:11;11.20;1.00
9167;DHT22;4618;48.818;9.088;2023-04-24T00:12:37;11.20;1.00
9167;DHT22;4618;48.818;9.088;2023-04-24T00:15:03;11.20;1.00
9167;DHT22;4618;48.818;9.088;2023-04-24T00:17:28;11.20;1.00
9167;DHT22;4618;48.818;9.088;2023-04-24T00:19:54;11.20;1.00
9167;DHT22;4618;48.818;9.088;2023-04-24T00:22:30;11.20;1.00
9167;DHT22;4618;48.818;9.088;2023-04-24T00:24:56;11.20;1.00
9167;DHT22;4618;48.818;9.088;2023-04-24T00:27:22;11.30;1.00
9167;DHT22;4618;48.818;9.088;2023-04-24T00:29:48;11.30;99.90
9167;DHT22;4618;48.818;9.088;2023-04-24T00:32:14;11.30;1.00
9167;DHT22;4618;48.818;9.088;2023-04-24T00:34:40;11.30;99.90
9167;DHT22;4618;48.818;9.088;2023-04-24T00:37:06;11.30;99.90
9167;DHT22;4618;48.818;9.088;2023-04-24T00:39:31;11.30;99.90
9167;DHT22;4618;48.818;9.088;2023-04-24T00:41:57;11.20;99.90
9167;DHT22;4618;48.818;9.088;2023-04-24T00:44:23;11.20;99.90
9167;DHT22;4618;48.818;9.088;2023-04-24T00:46:49;11.20;99.90
9167;DHT22;4618;48.818;9.088;2023-04-24T00:49:23;11.20;99.90
9167;DHT22;4618;48.818;9.088;2023-04-24T00:51:48;11.20;99.90
9167;DHT22;4618;48.818;9.088;2023-04-24T00:54:14;11.20;99.90
9167;DHT22;4618;48.818;9.088;2023-04-24T00:56:41;11.20;99.90
9167;DHT22;4618;48.818;9.088;2023-04-24T00:59:08;11.30;99.90
9167;DHT22;4618;48.818;9.088;2023-04-24T01:01:33;11.40;99.90
9167;DHT22;4618;48.818;9.088;2023-04-24T01:04:00;11.40;60.00
9167;DHT22;4618;48.818;9.088;2023-04-24T01:06:28;11.30;8.50
9167;DHT22;4618;48.818;9.088;2023-04-24T01:08:54;11.30;38.60
9167;DHT22;4618;48.818;9.088;2023-04-24T01:11:24;11.30;99.90
9167;DHT22;4618;48.818;9.088;2023-04-24T01:13:50;11.30;80.30
9167;DHT22;4618;48.818;9.088;2023-04-24T01:16:16;11.30;84.30
9167;DHT22;4618;48.818;9.088;2023-04-24T01:18:43;11.30;99.90
9167;DHT22;4618;48.818;9.088;2023-04-24T01:21:09;11.20;48.00
9167;DHT22;4618;48.818;9.088;2023-04-24T01:23:38;11.30;99.90
9167;DHT22;4618;48.818;9.088;2023-04-24T01:26:04;11.20;99.90
9167;DHT22;4618;48.818;9.088;2023-04-24T01:28:29;11.10;99.90
9167;DHT22;4618;48.818;9.088;2023-04-24T01:30:55;11.10;99.90
9167;DHT22;4618;48.818;9.088;2023-04-24T01:33:21;11.10;99.90
9167;DHT22;4618;48.818;9.088;2023-04-24T01:35:48;11.10;99.90
9167;DHT22;4618;48.818;9.088;2023-04-24T01:38:14;11.00;99.90
9167;DHT22;4618;48.818;9.088;2023-04-24T01:40:39;11.10;99.90
9167;DHT22;4618;48.818;9.088;2023-04-24T01:43:05;11.00;99.90
9167;DHT22;4618;48.818;9.088;2023-04-24T01:45:31;11.10;99.90
9167;DHT22;4618;48.818;9.088;2023-04-24T01:47:57;11.00;99.90
9167;DHT22;4618;48.818;9.088;2023-04-24T01:50:23;11.00;1.00
9167;DHT22;4618;48.818;9.088;2023-04-24T01:52:48;11.00;1.00
9167;DHT22;4618;48.818;9.088;2023-04-24T01:55:14;11.00;1.00
9167;DHT22;4618;48.818;9.088;2023-04-24T01:57:40;11.00;1.00
9167;DHT22;4618;48.818;9.088;2023-04-24T02:00:06;11.00;1.00
9167;DHT22;4618;48.818;9.088;2023-04-24T02:02:36;10.90;1.00
9167;DHT22;4618;48.818;9.088;2023-04-24T02:05:02;11.00;30.90
9167;DHT22;4618;48.818;9.088;2023-04-24T02:07:28;11.00;99.90
9167;DHT22;4618;48.818;9.088;2023-04-24T02:09:53;10.90;99.90
9167;DHT22;4618;48.818;9.088;2023-04-24T02:12:20;10.90;99.90
9167;DHT22;4618;48.818;9.088;2023-04-24T02:14:46;11.00;99.90
9167;DHT22;4618;48.818;9.088;2023-04-24T02:17:11;10.90;99.90
9167;DHT22;4618;48.818;9.088;2023-04-24T02:19:38;10.90;99.90
9167;DHT22;4618;48.818;9.088;2023-04-24T02:22:04;11.00;99.90
9167;DHT22;4618;48.818;9.088;2023-04-24T02:24:30;11.00;1.00
9167;DHT22;4618;48.818;9.088;2023-04-24T02:26:55;11.00;99.90
9167;DHT22;4618;48.818;9.088;2023-04-24T02:29:21;11.10;99.90
9167;DHT22;4618;48.818;9.088;2023-04-24T02:31:46;11.10;99.90
9167;DHT22;4618;48.818;9.088;2023-04-24T02:34:12;11.10;99.90
9167;DHT22;4618;48.818;9.088;2023-04-24T02:36:37;11.10;1.00
9167;DHT22;4618;48.818;9.088;2023-04-24T02:39:03;11.00;24.50
9167;DHT22;4618;48.818;9.088;2023-04-24T02:41:29;10.70;99.90
9167;DHT22;4618;48.818;9.088;2023-04-24T02:43:57;10.60;99.90
9167;DHT22;4618;48.818;9.088;2023-04-24T02:46:23;10.50;1.00
9167;DHT22;4618;48.818;9.088;2023-04-24T02:48:49;10.40;99.90
9167;DHT22;4618;48.818;9.088;2023-04-24T02:51:14;10.40;1.00
9167;DHT22;4618;48.818;9.088;2023-04-24T02:53:40;10.40;1.00
9167;DHT22;4618;48.818;9.088;2023-04-24T02:56:05;10.30;1.00
9167;DHT22;4618;48.818;9.088;2023-04-24T02:58:31;10.20;27.50
9167;DHT22;4618;48.818;9.088;2023-04-24T03:00:56;10.20;99.90
9167;DHT22;4618;48.818;9.088;2023-04-24T03:03:23;10.20;30.70
9167;DHT22;4618;48.818;9.088;2023-04-24T03:05:49;10.10;99.90
9167;DHT22;4618;48.818;9.088;2023-04-24T03:08:14;10.10;99.90
9167;DHT22;4618;48.818;9.088;2023-04-24T03:10:40;10.10;99.90
9167;DHT22;4618;48.818;9.088;2023-04-24T03:13:06;10.10;99.90
9167;DHT22;4618;48.818;9.088;2023-04-24T03:15:31;10.10;99.90
9167;DHT22;4618;48.818;9.088;2023-04-24T03:17:57;10.10;99.90
9167;DHT22;4618;48.818;9.088;2023-04-24T03:20:23;10.00;99.90
9167;DHT22;4618;48.818;9.088;2023-04-24T03:22:48;9.90;99.90
9167;DHT22;4618;48.818;9.088;2023-04-24T03:25:14;9.90;1.00
9167;DHT22;4618;48.818;9.088;2023-04-24T03:27:39;9.90;99.90
9167;DHT22;4618;48.818;9.088;2023-04-24T03:30:06;9.90;99.90
9167;DHT22;4618;48.818;9.088;2023-04-24T03:32:32;10.00;99.90
9167;DHT22;4618;48.818;9.088;2023-04-24T03:34:58;10.00;99.90
9167;DHT22;4618;48.818;9.088;2023-04-24T03:37:23;10.10;1.00
9167;DHT22;4618;48.818;9.088;2023-04-24T03:39:49;10.00;99.90
9167;DHT22;4618;48.818;9.088;2023-04-24T03:42:14;10.00;1.00
9167;DHT22;4618;48.818;9.088;2023-04-24T03:44:40;9.90;1.00
9167;DHT22;4618;48.818;9.088;2023-04-24T03:47:06;9.90;35.90
9167;DHT22;4618;48.818;9.088;2023-04-24T03:49:31;9.90;99.90
9167;DHT22;4618;48.818;9.088;2023-04-24T03:51:57;9.90;99.90
9167;DHT22;4618;48.818;9.088;2023-04-24T03:54:22;9.80;99.90
9167;DHT22;4618;48.818;9.088;2023-04-24T03:56:48;9.80;99.90
9167;DHT22;4618;48.818;9.088;2023-04-24T03:59:13;9.80;99.90
9167;DHT22;4618;48.818;9.088;2023-04-24T04:01:39;9.70;1.00
9167;DHT22;4618;48.818;9.088;2023-04-24T04:04:05;9.80;1.00
9167;DHT22;4618;48.818;9.088;2023-04-24T04:06:31;9.80;1.00
9167;DHT22;4618;48.818;9.088;2023-04-24T04:08:57;9.80;1.00
9167;DHT22;4618;48.818;9.088;2023-04-24T04:11:23;9.90;1.00
9167;DHT22;4618;48.818;9.088;2023-04-24T04:13:48;9.90;99.90
9167;DHT22;4618;48.818;9.088;2023-04-24T04:16:14;10.10;99.90
9167;DHT22;4618;48.818;9.088;2023-04-24T04:18:42;10.20;99.90
9167;DHT22;4618;48.818;9.088;2023-04-24T04:21:08;10.20;99.90
9167;DHT22;4618;48.818;9.088;2023-04-24T04:23:33;10.10;1.00
9167;DHT22;4618;48.818;9.088;2023-04-24T04:25:59;9.90;4.40
9167;DHT22;4618;48.818;9.088;2023-04-24T04:28:25;9.80;99.90
9167;DHT22;4618;48.818;9.088;2023-04-24T04:30:51;9.80;99.90
9167;DHT22;4618;48.818;9.088;2023-04-24T04:33:20;9.70;97.40
9167;DHT22;4618;48.818;9.088;2023-04-24T04:35:46;9.60;99.90
9167;DHT22;4618;48.818;9.088;2023-04-24T04:38:14;9.50;99.90
9167;DHT22;4618;48.818;9.088;2023-04-24T04:40:40;9.40;99.90
9167;DHT22;4618;48.818;9.088;2023-04-24T04:43:06;9.40;1.00
9167;DHT22;4618;48.818;9.088;2023-04-24T04:45:32;9.30;1.00
9167;DHT22;4618;48.818;9.088;2023-04-24T04:47:59;9.20;99.90
9167;DHT22;4618;48.818;9.088;2023-04-24T04:50:26;9.10;99.90
9167;DHT22;4618;48.818;9.088;2023-04-24T04:52:52;9.10;99.90
9167;DHT22;4618;48.818;9.088;2023-04-24T04:55:18;9.10;99.90
9167;DHT22;4618;48.818;9.088;2023-04-24T04:57:45;9.10;99.90
9167;DHT22;4618;48.818;9.088;2023-04-24T05:00:11;9.10;1.00
9167;DHT22;4618;48.818;9.088;2023-04-24T05:02:37;9.10;1.00
9167;DHT22;4618;48.818;9.088;2023-04-24T05:05:03;9.20;1.00
9167;DHT22;4618;48.818;9.088;2023-04-24T05:07:29;9.20;1.00
9167;DHT22;4618;48.818;9.088;2023-04-24T05:09:54;9.20;1.00
9167;DHT22;4618;48.818;9.088;2023-04-24T05:12:20;9.20;1.00
9167;DHT22;4618;48.818;9.088;2023-04-24T05:14:46;9.20;1.00
9167;DHT22;4618;48.818;9.088;2023-04-24T05:17:11;9.20;1.00
9167;DHT22;4618;48.818;9.088;2023-04-24T05:19:37;9.20;1.00
9167;DHT22;4618;48.818;9.088;2023-04-24T05:22:04;9.20;1.00
9167;DHT22;4618;48.818;9.088;2023-04-24T05:24:32;9.30;1.00
9167;DHT22;4618;48.818;9.088;2023-04-24T05:26:58;9.30;1.00
9167;DHT22;4618;48.818;9.088;2023-04-24T05:29:24;9.30;1.00
9167;DHT22;4618;48.818;9.088;2023-04-24T05:31:51;9.30;1.00
9167;DHT22;4618;48.818;9.088;2023-04-24T05:34:17;9.30;1.00
9167;DHT22;4618;48.818;9.088;2023-04-24T05:36:42;9.30;99.90
9167;DHT22;4618;48.818;9.088;2023-04-24T05:39:08;9.20;1.00
9167;DHT22;4618;48.818;9.088;2023-04-24T05:41:34;9.20;1.00
9167;DHT22;4618;48.818;9.088;2023-04-24T05:43:59;9.10;1.00
9167;DHT22;4618;48.818;9.088;2023-04-24T05:46:25;9.10;1.00
9167;DHT22;4618;48.818;9.088;2023-04-24T05:48:50;9.20;99.90
9167;DHT22;4618;48.818;9.088;2023-04-24T05:51:16;9.30;99.90
9167;DHT22;4618;48.818;9.088;2023-04-24T05:53:41;9.40;99.90
9167;DHT22;4618;48.818;9.088;2023-04-24T05:56:07;9.40;99.90
9167;DHT22;4618;48.818;9.088;2023-04-24T05:58:33;9.40;96.30
9167;DHT22;4618;48.818;9.088;2023-04-24T06:00:58;9.30;99.90
9167;DHT22;4618;48.818;9.088;2023-04-24T06:03:26;9.30;5.80
9167;DHT22;4618;48.818;9.088;2023-04-24T06:05:53;9.30;60.00
9167;DHT22;4618;48.818;9.088;2023-04-24T06:08:18;9.30;1.00
9167;DHT22;4618;48.818;9.088;2023-04-24T06:10:44;9.20;1.00
9167;DHT22;4618;48.818;9.088;2023-04-24T06:13:10;9.20;99.90
9167;DHT22;4618;48.818;9.088;2023-04-24T06:15:36;9.30;1.00
9167;DHT22;4618;48.818;9.088;2023-04-24T06:18:02;9.40;95.40
9167;DHT22;4618;48.818;9.088;2023-04-24T06:20:28;9.70;1.00
9167;DHT22;4618;48.818;9.088;2023-04-24T06:22:54;10.00;99.90
9167;DHT22;4618;48.818;9.088;2023-04-24T06:25:19;10.30;77.40
9167;DHT22;4618;48.818;9.088;2023-04-24T06:27:45;10.60;1.00
9167;DHT22;4618;48.818;9.088;2023-04-24T06:30:11;10.90;99.90
9167;DHT22;4618;48.818;9.088;2023-04-24T06:32:37;10.90;79.20
9167;DHT22;4618;48.818;9.088;2023-04-24T06:35:03;10.80;1.00
9167;DHT22;4618;48.818;9.088;2023-04-24T06:37:29;10.80;96.90
9167;DHT22;4618;48.818;9.088;2023-04-24T06:39:55;11.00;1.00
9167;DHT22;4618;48.818;9.088;2023-04-24T06:42:20;11.10;1.00
9167;DHT22;4618;48.818;9.088;2023-04-24T06:44:47;11.10;1.00
9167;DHT22;4618;48.818;9.088;2023-04-24T06:47:13;11.20;99.90
9167;DHT22;4618;48.818;9.088;2023-04-24T06:49:39;11.40;99.90
9167;DHT22;4618;48.818;9.088;2023-04-24T06:52:05;11.50;99.90
9167;DHT22;4618;48.818;9.088;2023-04-24T06:54:31;11.60;1.00
9167;DHT22;4618;48.818;9.088;2023-04-24T06:56:58;11.50;1.00
9167;DHT22;4618;48.818;9.088;2023-04-24T06:59:24;11.40;14.40
9167;DHT22;4618;48.818;9.088;2023-04-24T07:01:50;11.70;99.90
9167;DHT22;4618;48.818;9.088;2023-04-24T07:04:16;11.80;1.00
9167;DHT22;4618;48.818;9.088;2023-04-24T07:06:42;12.00;1.00
9167;DHT22;4618;48.818;9.088;2023-04-24T07:09:08;12.10;1.00
9167;DHT22;4618;48.818;9.088;2023-04-24T07:11:35;11.90;99.90
9167;DHT22;4618;48.818;9.088;2023-04-24T07:14:02;11.70;99.90
9167;DHT22;4618;48.818;9.088;2023-04-24T07:16:28;11.60;41.50
9167;DHT22;4618;48.818;9.088;2023-04-24T07:18:53;11.40;99.90
9167;DHT22;4618;48.818;9.088;2023-04-24T07:21:19;11.30;65.00
9167;DHT22;4618;48.818;9.088;2023-04-24T07:23:44;11.40;99.90
9167;DHT22;4618;48.818;9.088;2023-04-24T07:26:13;11.50;99.90
9167;DHT22;4618;48.818;9.088;2023-04-24T07:28:40;11.50;1.00
9167;DHT22;4618;48.818;9.088;2023-04-24T07:31:07;11.60;41.30
9167;DHT22;4618;48.818;9.088;2023-04-24T07:33:33;11.80;1.00
9167;DHT22;4618;48.818;9.088;2023-04-24T07:35:59;12.00;1.00
9167;DHT22;4618;48.818;9.088;2023-04-24T07:38:25;12.10;1.00
9167;DHT22;4618;48.818;9.088;2023-04-24T07:40:51;12.10;1.00
9167;DHT22;4618;48.818;9.088;2023-04-24T07:43:17;12.00;1.00
9167;DHT22;4618;48.818;9.088;2023-04-24T07:45:43;12.10;1.00
9167;DHT22;4618;48.818;9.088;2023-04-24T07:48:09;12.10;1.00
9167;DHT22;4618;48.818;9.088;2023-04-24T07:50:35;12.10;1.00
9167;DHT22;4618;48.818;9.088;2023-04-24T07:53:02;12.00;1.00
9167;DHT22;4618;48.818;9.088;2023-04-24T07:55:27;12.00;1.00
9167;DHT22;4618;48.818;9.088;2023-04-24T07:57:53;12.20;1.00
9167;DHT22;4618;48.818;9.088;2023-04-24T08:00:21;12.20;1.00
9167;DHT22;4618;48.818;9.088;2023-04-24T08:02:47;12.10;1.00
9167;DHT22;4618;48.818;9.088;2023-04-24T08:05:13;12.10;1.00
9167;DHT22;4618;48.818;9.088;2023-04-24T08:07:38;12.10;1.00
9167;DHT22;4618;48.818;9.088;2023-04-24T08:10:05;12.20;99.90
9167;DHT22;4618;48.818;9.088;2023-04-24T08:12:31;12.50;99.90
9167;DHT22;4618;48.818;9.088;2023-04-24T08:14:56;12.50;99.90
9167;DHT22;4618;48.818;9.088;2023-04-24T08:17:22;12.40;99.90
9167;DHT22;4618;48.818;9.088;2023-04-24T08:19:47;12.50;99.90
9167;DHT22;4618;48.818;9.088;2023-04-24T08:22:16;12.50;99.90
9167;DHT22;4618;48.818;9.088;2023-04-24T08:24:42;12.80;99.90
9167;DHT22;4618;48.818;9.088;2023-04-24T08:27:09;12.80;99.90
9167;DHT22;4618;48.818;9.088;2023-04-24T08:29:34;12.40;1.00
9167;DHT22;4618;48.818;9.088;2023-04-24T08:32:00;12.40;1.00
9167;DHT22;4618;48.818;9.088;2023-04-24T08:34:26;12.30;1.00
9167;DHT22;4618;48.818;9.088;2023-04-24T08:36:51;12.20;99.90
9167;DHT22;4618;48.818;9.088;2023-04-24T08:39:17;12.10;1.00
9167;DHT22;4618;48.818;9.088;2023-04-24T08:41:44;12.00;1.00
9167;DHT22;4618;48.818;9.088;2023-04-24T08:44:11;11.80;1.00
9167;DHT22;4618;48.818;9.088;2023-04-24T08:46:38;11.90;1.00
9167;DHT22;4618;48.818;9.088;2023-04-24T08:49:05;11.90;1.00
9167;DHT22;4618;48.818;9.088;2023-04-24T08:51:31;11.90;1.00
9167;DHT22;4618;48.818;9.088;2023-04-24T08:53:57;11.90;1.00
9167;DHT22;4618;48.818;9.088;2023-04-24T08:56:23;12.10;1.00
9167;DHT22;4618;48.818;9.088;2023-04-24T08:58:50;12.70;99.90
9167;DHT22;4618;48.818;9.088;2023-04-24T09:01:17;12.60;99.90
9167;DHT22;4618;48.818;9.088;2023-04-24T09:03:43;12.20;99.90
9167;DHT22;4618;48.818;9.088;2023-04-24T09:06:09;12.10;1.00
9167;DHT22;4618;48.818;9.088;2023-04-24T09:08:36;12.00;99.90
9167;DHT22;4618;48.818;9.088;2023-04-24T09:11:01;11.70;1.00
9167;DHT22;4618;48.818;9.088;2023-04-24T09:13:28;11.20;1.00
9167;DHT22;4618;48.818;9.088;2023-04-24T09:15:55;10.80;1.00
9167;DHT22;4618;48.818;9.088;2023-04-24T09:18:22;10.20;99.90
9167;DHT22;4618;48.818;9.088;2023-04-24T09:21:08;9.80;1.00
9167;DHT22;4618;48.818;9.088;2023-04-24T09:23:33;9.90;99.90
9167;DHT22;4618;48.818;9.088;2023-04-24T09:26:01;10.30;99.90
9167;DHT22;4618;48.818;9.088;2023-04-24T09:28:38;11.10;1.00
9167;DHT22;4618;48.818;9.088;2023-04-24T09:31:13;11.20;1.00
9167;DHT22;4618;48.818;9.088;2023-04-24T09:33:57;11.10;1.00
9167;DHT22;4618;48.818;9.088;2023-04-24T09:36:33;12.20;1.00
9167;DHT22;4618;48.818;9.088;2023-04-24T09:39:00;13.00;99.90
9167;DHT22;4618;48.818;9.088;2023-04-24T09:41:27;13.50;99.90
9167;DHT22;4618;48.818;9.088;2023-04-24T09:43:57;13.40;99.90
9167;DHT22;4618;48.818;9.088;2023-04-24T09:46:30;12.90;99.90
9167;DHT22;4618;48.818;9.088;2023-04-24T09:48:57;12.50;99.90
9167;DHT22;4618;48.818;9.088;2023-04-24T09:51:34;11.90;99.90
9167;DHT22;4618;48.818;9.088;2023-04-24T09:54:02;12.90;99.90
9167;DHT22;4618;48.818;9.088;2023-04-24T09:56:29;13.20;99.90
9167;DHT22;4618;48.818;9.088;2023-04-24T09:59:07;13.20;99.90
9167;DHT22;4618;48.818;9.088;2023-04-24T10:01:33;13.40;99.90
9167;DHT22;4618;48.818;9.088;2023-04-24T10:03:59;14.20;99.90
9167;DHT22;4618;48.818;9.088;2023-04-24T10:06:34;14.10;99.90
9167;DHT22;4618;48.818;9.088;2023-04-24T10:09:01;14.60;99.90
9167;DHT22;4618;48.818;9.088;2023-04-24T10:11:27;14.50;99.90
9167;DHT22;4618;48.818;9.088;2023-04-24T10:13:53;14.40;99.90
9167;DHT22;4618;48.818;9.088;2023-04-24T10:16:20;14.70;99.90
9167;DHT22;4618;48.818;9.088;2023-04-24T10:18:48;15.00;99.90
9167;DHT22;4618;48.818;9.088;2023-04-24T10:21:15;15.20;99.90
9167;DHT22;4618;48.818;9.088;2023-04-24T10:23:42;15.00;99.90
9167;DHT22;4618;48.818;9.088;2023-04-24T10:26:12;15.00;99.90
9167;DHT22;4618;48.818;9.088;2023-04-24T10:28:44;14.30;99.90
9167;DHT22;4618;48.818;9.088;2023-04-24T10:31:10;13.50;99.90
9167;DHT22;4618;48.818;9.088;2023-04-24T10:33:38;13.00;99.90
9167;DHT22;4618;48.818;9.088;2023-04-24T10:36:08;12.40;99.90
9167;DHT22;4618;48.818;9.088;2023-04-24T10:38:35;12.10;99.90
9167;DHT22;4618;48.818;9.088;2023-04-24T10:41:12;12.20;99.90
9167;DHT22;4618;48.818;9.088;2023-04-24T10:44:03;12.30;99.90
9167;DHT22;4618;48.818;9.088;2023-04-24T10:46:30;12.40;99.90
9167;DHT22;4618;48.818;9.088;2023-04-24T10:48:56;12.50;99.90
9167;DHT22;4618;48.818;9.088;2023-04-24T10:51:23;12.30;99.90
9167;DHT22;4618;48.818;9.088;2023-04-24T10:53:50;12.10;99.90
9167;DHT22;4618;48.818;9.088;2023-04-24T10:56:17;12.10;99.90
9167;DHT22;4618;48.818;9.088;2023-04-24T10:58:45;12.20;99.90
9167;DHT22;4618;48.818;9.088;2023-04-24T11:01:32;12.20;99.90
9167;DHT22;4618;48.818;9.088;2023-04-24T11:04:02;12.00;99.90
9167;DHT22;4618;48.818;9.088;2023-04-24T11:06:37;11.60;99.90
9167;DHT22;4618;48.818;9.088;2023-04-24T11:09:08;11.40;99.90
9167;DHT22;4618;48.818;9.088;2023-04-24T11:11:35;11.40;99.90
9167;DHT22;4618;48.818;9.088;2023-04-24T11:14:02;11.50;99.90
9167;DHT22;4618;48.818;9.088;2023-04-24T11:16:53;11.80;99.90
9167;DHT22;4618;48.818;9.088;2023-04-24T11:19:24;12.00;99.90
9167;DHT22;4618;48.818;9.088;2023-04-24T11:22:04;12.50;99.90
9167;DHT22;4618;48.818;9.088;2023-04-24T11:34:49;12.70;99.90
9167;DHT22;4618;48.818;9.088;2023-04-24T11:37:16;12.20;99.90
9167;DHT22;4618;48.818;9.088;2023-04-24T11:39:41;12.10;99.90
9167;DHT22;4618;48.818;9.088;2023-04-24T11:42:13;11.90;99.90
9167;DHT22;4618;48.818;9.088;2023-04-24T11:44:39;11.70;99.90
9167;DHT22;4618;48.818;9.088;2023-04-24T11:47:06;11.40;99.90
9167;DHT22;4618;48.818;9.088;2023-04-24T11:49:32;11.50;99.90
9167;DHT22;4618;48.818;9.088;2023-04-24T11:51:59;12.00;99.90
9167;DHT22;4618;48.818;9.088;2023-04-24T11:54:25;12.50;99.90
9167;DHT22;4618;48.818;9.088;2023-04-24T11:56:51;12.80;99.90
9167;DHT22;4618;48.818;9.088;2023-04-24T11:59:17;13.00;99.90
9167;DHT22;4618;48.818;9.088;2023-04-24T12:01:46;12.90;99.90
9167;DHT22;4618;48.818;9.088;2023-04-24T12:04:12;13.10;99.90
9167;DHT22;4618;48.818;9.088;2023-04-24T12:06:38;13.20;99.90
9167;DHT22;4618;48.818;9.088;2023-04-24T12:09:04;12.80;99.90
9167;DHT22;4618;48.818;9.088;2023-04-24T12:11:30;12.50;99.90
9167;DHT22;4618;48.818;9.088;2023-04-24T12:13:55;12.20;99.90
9167;DHT22;4618;48.818;9.088;2023-04-24T12:16:21;12.10;99.90
9167;DHT22;4618;48.818;9.088;2023-04-24T12:18:47;11.90;99.90
9167;DHT22;4618;48.818;9.088;2023-04-24T12:21:20;11.80;99.90
9167;DHT22;4618;48.818;9.088;2023-04-24T12:23:46;11.70;99.90
9167;DHT22;4618;48.818;9.088;2023-04-24T12:26:20;11.80;99.90
9167;DHT22;4618;48.818;9.088;2023-04-24T12:28:48;11.90;99.90
9167;DHT22;4618;48.818;9.088;2023-04-24T12:31:15;11.80;99.90
9167;DHT22;4618;48.818;9.088;2023-04-24T12:33:40;11.80;99.90
9167;DHT22;4618;48.818;9.088;2023-04-24T12:36:06;11.70;99.90
9167;DHT22;4618;48.818;9.088;2023-04-24T12:38:35;11.70;99.90
9167;DHT22;4618;48.818;9.088;2023-04-24T12:41:07;11.80;99.90
9167;DHT22;4618;48.818;9.088;2023-04-24T12:43:34;11.90;99.90
9167;DHT22;4618;48.818;9.088;2023-04-24T12:45:59;11.80;99.90
9167;DHT22;4618;48.818;9.088;2023-04-24T12:48:26;11.70;99.90
9167;DHT22;4618;48.818;9.088;2023-04-24T12:50:52;11.50;99.90
9167;DHT22;4618;48.818;9.088;2023-04-24T12:53:18;11.30;99.90
9167;DHT22;4618;48.818;9.088;2023-04-24T12:55:44;10.70;1.00
9167;DHT22;4618;48.818;9.088;2023-04-24T12:58:10;10.00;1.00
9167;DHT22;4618;48.818;9.088;2023-04-24T13:00:36;9.90;1.00
9167;DHT22;4618;48.818;9.088;2023-04-24T13:03:02;10.20;1.00
9167;DHT22;4618;48.818;9.088;2023-04-24T13:05:27;10.60;1.00
9167;DHT22;4618;48.818;9.088;2023-04-24T13:07:53;11.10;99.90
9167;DHT22;4618;48.818;9.088;2023-04-24T13:10:19;11.70;1.00
9167;DHT22;4618;48.818;9.088;2023-04-24T13:12:45;12.10;1.00
9167;DHT22;4618;48.818;9.088;2023-04-24T13:15:11;12.10;99.90
9167;DHT22;4618;48.818;9.088;2023-04-24T13:17:37;12.00;99.90
9167;DHT22;4618;48.818;9.088;2023-04-24T13:20:03;12.10;99.90
9167;DHT22;4618;48.818;9.088;2023-04-24T13:22:29;12.20;99.90
9167;DHT22;4618;48.818;9.088;2023-04-24T13:24:54;12.30;99.90
9167;DHT22;4618;48.818;9.088;2023-04-24T13:27:20;12.40;99.90
9167;DHT22;4618;48.818;9.088;2023-04-24T13:29:45;12.50;99.90
9167;DHT22;4618;48.818;9.088;2023-04-24T13:32:11;12.60;99.90
9167;DHT22;4618;48.818;9.088;2023-04-24T13:34:37;12.40;99.90
9167;DHT22;4618;48.818;9.088;2023-04-24T13:37:03;12.10;99.90
9167;DHT22;4618;48.818;9.088;2023-04-24T13:39:29;12.10;99.90
9167;DHT22;4618;48.818;9.088;2023-04-24T13:41:55;12.00;99.90
9167;DHT22;4618;48.818;9.088;2023-04-24T13:44:21;12.10;99.90
9167;DHT22;4618;48.818;9.088;2023-04-24T13:46:49;11.50;1.00
9167;DHT22;4618;48.818;9.088;2023-04-24T13:49:17;12.60;1.00
9167;DHT22;4618;48.818;9.088;2023-04-24T13:51:43;13.40;99.90
9167;DHT22;4618;48.818;9.088;2023-04-24T13:54:09;14.10;99.90
9167;DHT22;4618;48.818;9.088;2023-04-24T13:56:35;14.50;99.90
9167;DHT22;4618;48.818;9.088;2023-04-24T13:59:00;13.30;99.90
9167;DHT22;4618;48.818;9.088;2023-04-24T14:01:26;12.90;99.90
9167;DHT22;4618;48.818;9.088;2023-04-24T14:03:52;13.10;99.90
9167;DHT22;4618;48.818;9.088;2023-04-24T14:06:21;13.40;99.90
9167;DHT22;4618;48.818;9.088;2023-04-24T14:08:48;14.40;99.90
9167;DHT22;4618;48.818;9.088;2023-04-24T14:11:14;15.30;99.90
9167;DHT22;4618;48.818;9.088;2023-04-24T14:13:41;14.60;99.90
9167;DHT22;4618;48.818;9.088;2023-04-24T14:16:07;14.50;99.90
9167;DHT22;4618;48.818;9.088;2023-04-24T14:18:33;14.60;99.90
9167;DHT22;4618;48.818;9.088;2023-04-24T14:20:59;14.80;99.90
9167;DHT22;4618;48.818;9.088;2023-04-24T14:23:26;14.60;99.90
9167;DHT22;4618;48.818;9.088;2023-04-24T14:25:52;14.10;99.90
9167;DHT22;4618;48.818;9.088;2023-04-24T14:28:18;13.30;99.90
9167;DHT22;4618;48.818;9.088;2023-04-24T14:30:44;13.30;99.90
9167;DHT22;4618;48.818;9.088;2023-04-24T14:33:10;12.70;99.90
9167;DHT22;4618;48.818;9.088;2023-04-24T14:35:37;12.40;99.90
9167;DHT22;4618;48.818;9.088;2023-04-24T14:38:02;12.30;99.90
9167;DHT22;4618;48.818;9.088;2023-04-24T14:40:28;12.30;99.90
9167;DHT22;4618;48.818;9.088;2023-04-24T14:42:53;12.30;99.90
9167;DHT22;4618;48.818;9.088;2023-04-24T14:45:19;12.10;99.90
9167;DHT22;4618;48.818;9.088;2023-04-24T14:47:45;12.00;99.90
9167;DHT22;4618;48.818;9.088;2023-04-24T14:50:10;11.90;99.90
9167;DHT22;4618;48.818;9.088;2023-04-24T14:52:37;11.90;99.90
9167;DHT22;4618;48.818;9.088;2023-04-24T14:55:03;12.10;99.90
9167;DHT22;4618;48.818;9.088;2023-04-24T14:57:29;12.80;99.90
9167;DHT22;4618;48.818;9.088;2023-04-24T14:59:55;13.10;99.90
9167;DHT22;4618;48.818;9.088;2023-04-24T15:02:21;12.80;99.90
9167;DHT22;4618;48.818;9.088;2023-04-24T15:04:46;12.40;99.90
9167;DHT22;4618;48.818;9.088;2023-04-24T15:07:12;12.20;99.90
9167;DHT22;4618;48.818;9.088;2023-04-24T15:09:37;12.10;99.90
9167;DHT22;4618;48.818;9.088;2023-04-24T15:12:03;11.90;99.90
9167;DHT22;4618;48.818;9.088;2023-04-24T15:14:29;11.70;99.90
9167;DHT22;4618;48.818;9.088;2023-04-24T15:16:54;11.80;99.90
9167;DHT22;4618;48.818;9.088;2023-04-24T15:19:20;11.70;99.90
9167;DHT22;4618;48.818;9.088;2023-04-24T15:21:46;11.60;99.90
9167;DHT22;4618;48.818;9.088;2023-04-24T15:24:11;11.50;1.00
9167;DHT22;4618;48.818;9.088;2023-04-24T15:26:37;11.40;1.00
9167;DHT22;4618;48.818;9.088;2023-04-24T15:29:02;11.10;1.00
9167;DHT22;4618;48.818;9.088;2023-04-24T15:31:28;10.70;99.90
9167;DHT22;4618;48.818;9.088;2023-04-24T15:33:54;10.70;99.90
9167;DHT22;4618;48.818;9.088;2023-04-24T15:36:19;11.00;19.40
9167;DHT22;4618;48.818;9.088;2023-04-24T15:38:46;11.30;1.00
9167;DHT22;4618;48.818;9.088;2023-04-24T15:41:12;11.40;1.00
9167;DHT22;4618;48.818;9.088;2023-04-24T15:43:37;11.40;1.00
9167;DHT22;4618;48.818;9.088;2023-04-24T15:46:04;11.50;1.00
9167;DHT22;4618;48.818;9.088;2023-04-24T15:48:30;11.60;1.00
9167;DHT22;4618;48.818;9.088;2023-04-24T15:50:56;11.40;1.00
9167;DHT22;4618;48.818;9.088;2023-04-24T15:53:22;11.90;1.00
9167;DHT22;4618;48.818;9.088;2023-04-24T15:55:51;12.90;99.90
9167;DHT22;4618;48.818;9.088;2023-04-24T15:58:19;13.60;99.90
9167;DHT22;4618;48.818;9.088;2023-04-24T16:00:46;13.60;99.90
9167;DHT22;4618;48.818;9.088;2023-04-24T16:03:12;14.00;99.90
9167;DHT22;4618;48.818;9.088;2023-04-24T16:05:38;13.90;99.90
9167;DHT22;4618;48.818;9.088;2023-04-24T16:08:04;14.00;99.90
9167;DHT22;4618;48.818;9.088;2023-04-24T16:10:29;14.60;99.90
9167;DHT22;4618;48.818;9.088;2023-04-24T16:12:55;14.30;99.90
9167;DHT22;4618;48.818;9.088;2023-04-24T16:15:22;14.10;99.90